sensor_id;sensor_type;location;lat;lon;timestamp;P1;durP1;ratioP1;P2;durP2;ratioP2
55031;SDS011;40928;51.076;7.950;2022-11-15T00:01:47;17.60;;;8.77;;
55031;SDS011;40928;51.076;7.950;2022-11-15T00:04:31;13.63;;;8.00;;
55031;SDS011;40928;51.076;7.950;2022-11-15T00:07:15;17.08;;;8.75;;
55031;SDS011;40928;51.076;7.950;2022-11-15T00:09:59;16.15;;;7.85;;
55031;SDS011;40928;51.076;7.950;2022-11-15T00:12:43;14.50;;;8.27;;
55031;SDS011;40928;51.076;7.950;2022-11-15T00:15:27;18.15;;;8.85;;
55031;SDS011;40928;51.076;7.950;2022-11-15T00:18:14;14.00;;;7.57;;
55031;SDS011;40928;51.076;7.950;2022-11-15T00:21:04;16.85;;;8.57;;
55031;SDS011;40928;51.076;7.950;2022-11-15T00:23:54;16.02;;;8.68;;
55031;SDS011;40928;51.076;7.950;2022-11-15T00:26:38;17.38;;;8.02;;
55031;SDS011;40928;51.076;7.950;2022-11-15T00:29:22;16.33;;;8.20;;
55031;SDS011;40928;51.076;7.950;2022-11-15T00:32:06;13.80;;;7.90;;
55031;SDS011;40928;51.076;7.950;2022-11-15T00:34:50;17.30;;;7.68;;
55031;SDS011;40928;51.076;7.950;2022-11-15T00:37:34;14.18;;;8.30;;
55031;SDS011;40928;51.076;7.950;2022-11-15T00:40:18;15.35;;;8.48;;
55031;SDS011;40928;51.076;7.950;2022-11-15T00:43:02;15.30;;;8.20;;
55031;SDS011;40928;51.076;7.950;2022-11-15T00:45:45;12.18;;;7.57;;
55031;SDS011;40928;51.076;7.950;2022-11-15T00:48:29;15.77;;;8.02;;
55031;SDS011;40928;51.076;7.950;2022-11-15T00:51:14;12.25;;;7.07;;
55031;SDS011;40928;51.076;7.950;2022-11-15T00:53:58;12.63;;;7.32;;
55031;SDS011;40928;51.076;7.950;2022-11-15T00:56:42;15.65;;;7.68;;
55031;SDS011;40928;51.076;7.950;2022-11-15T00:59:26;15.68;;;7.75;;
55031;SDS011;40928;51.076;7.950;2022-11-15T01:02:10;14.38;;;7.57;;
55031;SDS011;40928;51.076;7.950;2022-11-15T01:04:54;14.20;;;6.75;;
55031;SDS011;40928;51.076;7.950;2022-11-15T01:07:38;12.15;;;6.65;;
55031;SDS011;40928;51.076;7.950;2022-11-15T01:10:22;13.75;;;7.55;;
55031;SDS011;40928;51.076;7.950;2022-11-15T01:13:06;13.17;;;7.13;;
55031;SDS011;40928;51.076;7.950;2022-11-15T01:15:51;11.82;;;6.75;;
55031;SDS011;40928;51.076;7.950;2022-11-15T01:18:35;11.65;;;7.10;;
55031;SDS011;40928;51.076;7.950;2022-11-15T01:21:19;16.23;;;7.05;;
55031;SDS011;40928;51.076;7.950;2022-11-15T01:24:04;11.70;;;6.77;;
55031;SDS011;40928;51.076;7.950;2022-11-15T01:26:48;10.65;;;6.70;;
55031;SDS011;40928;51.076;7.950;2022-11-15T01:29:32;15.52;;;6.30;;
55031;SDS011;40928;51.076;7.950;2022-11-15T01:32:16;11.02;;;6.85;;
55031;SDS011;40928;51.076;7.950;2022-11-15T01:35:01;11.83;;;6.50;;
55031;SDS011;40928;51.076;7.950;2022-11-15T01:37:45;11.40;;;6.20;;
55031;SDS011;40928;51.076;7.950;2022-11-15T01:40:29;12.32;;;5.60;;
55031;SDS011;40928;51.076;7.950;2022-11-15T01:43:22;12.75;;;6.10;;
55031;SDS011;40928;51.076;7.950;2022-11-15T01:49:11;10.75;;;5.05;;
55031;SDS011;40928;51.076;7.950;2022-11-15T01:51:59;10.95;;;5.50;;
55031;SDS011;40928;51.076;7.950;2022-11-15T01:54:46;8.90;;;5.22;;
55031;SDS011;40928;51.076;7.950;2022-11-15T01:57:32;10.98;;;5.40;;
55031;SDS011;40928;51.076;7.950;2022-11-15T02:00:17;8.27;;;5.20;;
55031;SDS011;40928;51.076;7.950;2022-11-15T02:03:01;7.57;;;4.47;;
55031;SDS011;40928;51.076;7.950;2022-11-15T02:05:45;6.88;;;4.50;;
55031;SDS011;40928;51.076;7.950;2022-11-15T02:08:29;6.70;;;4.25;;
55031;SDS011;40928;51.076;7.950;2022-11-15T02:11:13;6.68;;;4.10;;
55031;SDS011;40928;51.076;7.950;2022-11-15T02:13:57;8.32;;;5.20;;
55031;SDS011;40928;51.076;7.950;2022-11-15T02:25:24;10.48;;;5.32;;
55031;SDS011;40928;51.076;7.950;2022-11-15T02:31:18;9.52;;;5.90;;
55031;SDS011;40928;51.076;7.950;2022-11-15T02:34:28;9.23;;;5.10;;
55031;SDS011;40928;51.076;7.950;2022-11-15T02:40:34;7.38;;;5.28;;
55031;SDS011;40928;51.076;7.950;2022-11-15T02:43:27;17.42;;;7.00;;
55031;SDS011;40928;51.076;7.950;2022-11-15T02:49:46;11.25;;;7.03;;
55031;SDS011;40928;51.076;7.950;2022-11-15T02:52:32;10.68;;;6.32;;
55031;SDS011;40928;51.076;7.950;2022-11-15T03:07:14;9.65;;;6.68;;
55031;SDS011;40928;51.076;7.950;2022-11-15T03:10:09;12.77;;;6.77;;
55031;SDS011;40928;51.076;7.950;2022-11-15T03:13:26;11.57;;;6.32;;
55031;SDS011;40928;51.076;7.950;2022-11-15T03:19:26;9.73;;;6.53;;
55031;SDS011;40928;51.076;7.950;2022-11-15T03:22:18;10.57;;;7.05;;
55031;SDS011;40928;51.076;7.950;2022-11-15T03:25:06;13.88;;;7.10;;
55031;SDS011;40928;51.076;7.950;2022-11-15T03:27:54;16.83;;;6.55;;
55031;SDS011;40928;51.076;7.950;2022-11-15T03:30:42;12.43;;;7.13;;
55031;SDS011;40928;51.076;7.950;2022-11-15T03:33:29;11.25;;;7.53;;
55031;SDS011;40928;51.076;7.950;2022-11-15T03:36:14;14.50;;;7.45;;
55031;SDS011;40928;51.076;7.950;2022-11-15T03:39:01;13.05;;;7.00;;
55031;SDS011;40928;51.076;7.950;2022-11-15T03:47:34;12.38;;;7.03;;
55031;SDS011;40928;51.076;7.950;2022-11-15T03:50:23;12.30;;;6.88;;
55031;SDS011;40928;51.076;7.950;2022-11-15T03:53:08;11.85;;;7.32;;
55031;SDS011;40928;51.076;7.950;2022-11-15T03:55:53;10.10;;;6.53;;
55031;SDS011;40928;51.076;7.950;2022-11-15T03:58:37;15.38;;;7.30;;
55031;SDS011;40928;51.076;7.950;2022-11-15T04:01:20;11.05;;;6.80;;
55031;SDS011;40928;51.076;7.950;2022-11-15T04:04:04;9.82;;;6.45;;
55031;SDS011;40928;51.076;7.950;2022-11-15T04:06:48;11.05;;;7.13;;
55031;SDS011;40928;51.076;7.950;2022-11-15T04:09:32;14.77;;;7.28;;
55031;SDS011;40928;51.076;7.950;2022-11-15T04:12:16;16.25;;;6.97;;
55031;SDS011;40928;51.076;7.950;2022-11-15T04:15:18;13.85;;;6.50;;
55031;SDS011;40928;51.076;7.950;2022-11-15T04:18:04;10.95;;;6.10;;
55031;SDS011;40928;51.076;7.950;2022-11-15T04:20:48;9.05;;;6.05;;
55031;SDS011;40928;51.076;7.950;2022-11-15T04:23:51;12.15;;;6.30;;
55031;SDS011;40928;51.076;7.950;2022-11-15T04:26:38;11.13;;;6.57;;
55031;SDS011;40928;51.076;7.950;2022-11-15T04:29:22;8.65;;;6.13;;
55031;SDS011;40928;51.076;7.950;2022-11-15T04:32:18;11.57;;;6.38;;
55031;SDS011;40928;51.076;7.950;2022-11-15T04:35:02;10.88;;;6.07;;
55031;SDS011;40928;51.076;7.950;2022-11-15T04:37:47;9.13;;;5.40;;
55031;SDS011;40928;51.076;7.950;2022-11-15T04:40:31;11.90;;;6.55;;
55031;SDS011;40928;51.076;7.950;2022-11-15T04:43:15;9.47;;;5.03;;
55031;SDS011;40928;51.076;7.950;2022-11-15T04:45:59;11.15;;;6.38;;
55031;SDS011;40928;51.076;7.950;2022-11-15T04:48:43;8.75;;;5.93;;
55031;SDS011;40928;51.076;7.950;2022-11-15T04:51:27;9.70;;;6.00;;
55031;SDS011;40928;51.076;7.950;2022-11-15T04:54:11;10.53;;;6.23;;
55031;SDS011;40928;51.076;7.950;2022-11-15T04:56:55;10.55;;;6.07;;
55031;SDS011;40928;51.076;7.950;2022-11-15T04:59:39;7.70;;;5.05;;
55031;SDS011;40928;51.076;7.950;2022-11-15T05:02:23;8.93;;;6.00;;
55031;SDS011;40928;51.076;7.950;2022-11-15T05:05:07;10.43;;;6.25;;
55031;SDS011;40928;51.076;7.950;2022-11-15T05:07:51;11.30;;;5.55;;
55031;SDS011;40928;51.076;7.950;2022-11-15T05:10:35;11.98;;;6.55;;
55031;SDS011;40928;51.076;7.950;2022-11-15T05:13:19;7.75;;;5.53;;
55031;SDS011;40928;51.076;7.950;2022-11-15T05:16:04;11.52;;;5.85;;
55031;SDS011;40928;51.076;7.950;2022-11-15T05:18:55;9.00;;;5.80;;
55031;SDS011;40928;51.076;7.950;2022-11-15T05:21:39;9.55;;;5.60;;
55031;SDS011;40928;51.076;7.950;2022-11-15T05:24:23;11.07;;;5.45;;
55031;SDS011;40928;51.076;7.950;2022-11-15T05:27:07;7.18;;;4.85;;
55031;SDS011;40928;51.076;7.950;2022-11-15T05:29:51;8.65;;;5.70;;
55031;SDS011;40928;51.076;7.950;2022-11-15T05:32:36;11.25;;;5.63;;
55031;SDS011;40928;51.076;7.950;2022-11-15T05:35:24;6.70;;;4.87;;
55031;SDS011;40928;51.076;7.950;2022-11-15T05:38:16;10.52;;;5.70;;
55031;SDS011;40928;51.076;7.950;2022-11-15T05:41:00;10.50;;;6.20;;
55031;SDS011;40928;51.076;7.950;2022-11-15T05:43:46;8.10;;;5.10;;
55031;SDS011;40928;51.076;7.950;2022-11-15T05:46:32;9.30;;;5.57;;
55031;SDS011;40928;51.076;7.950;2022-11-15T05:49:18;10.85;;;6.55;;
55031;SDS011;40928;51.076;7.950;2022-11-15T05:52:05;12.60;;;6.60;;
55031;SDS011;40928;51.076;7.950;2022-11-15T05:54:52;10.02;;;6.15;;
55031;SDS011;40928;51.076;7.950;2022-11-15T05:57:38;9.60;;;5.68;;
55031;SDS011;40928;51.076;7.950;2022-11-15T06:00:22;10.95;;;5.30;;
55031;SDS011;40928;51.076;7.950;2022-11-15T06:03:07;8.57;;;5.00;;
55031;SDS011;40928;51.076;7.950;2022-11-15T06:05:51;12.18;;;4.93;;
55031;SDS011;40928;51.076;7.950;2022-11-15T06:08:35;7.95;;;4.03;;
55031;SDS011;40928;51.076;7.950;2022-11-15T06:11:19;7.75;;;4.68;;
55031;SDS011;40928;51.076;7.950;2022-11-15T06:14:03;8.80;;;4.45;;
55031;SDS011;40928;51.076;7.950;2022-11-15T06:16:48;7.38;;;4.40;;
55031;SDS011;40928;51.076;7.950;2022-11-15T06:19:32;5.18;;;4.15;;
55031;SDS011;40928;51.076;7.950;2022-11-15T06:22:16;7.18;;;4.15;;
55031;SDS011;40928;51.076;7.950;2022-11-15T06:25:00;6.03;;;3.95;;
55031;SDS011;40928;51.076;7.950;2022-11-15T06:27:50;7.60;;;4.22;;
55031;SDS011;40928;51.076;7.950;2022-11-15T06:30:35;15.57;;;4.55;;
55031;SDS011;40928;51.076;7.950;2022-11-15T06:33:19;7.70;;;4.70;;
55031;SDS011;40928;51.076;7.950;2022-11-15T06:36:03;6.25;;;4.20;;
55031;SDS011;40928;51.076;7.950;2022-11-15T06:38:49;6.47;;;4.53;;
55031;SDS011;40928;51.076;7.950;2022-11-15T06:41:33;5.00;;;4.00;;
55031;SDS011;40928;51.076;7.950;2022-11-15T06:44:19;8.10;;;4.53;;
55031;SDS011;40928;51.076;7.950;2022-11-15T06:47:03;6.60;;;3.97;;
55031;SDS011;40928;51.076;7.950;2022-11-15T06:49:48;7.22;;;4.32;;
55031;SDS011;40928;51.076;7.950;2022-11-15T06:52:32;7.55;;;4.38;;
55031;SDS011;40928;51.076;7.950;2022-11-15T06:55:16;5.57;;;3.85;;
55031;SDS011;40928;51.076;7.950;2022-11-15T06:58:00;9.13;;;4.35;;
55031;SDS011;40928;51.076;7.950;2022-11-15T07:00:44;7.53;;;4.00;;
55031;SDS011;40928;51.076;7.950;2022-11-15T07:03:28;7.70;;;3.92;;
55031;SDS011;40928;51.076;7.950;2022-11-15T07:06:13;6.97;;;4.20;;
55031;SDS011;40928;51.076;7.950;2022-11-15T07:08:57;6.10;;;3.65;;
55031;SDS011;40928;51.076;7.950;2022-11-15T07:11:41;6.72;;;3.72;;
55031;SDS011;40928;51.076;7.950;2022-11-15T07:14:24;7.78;;;3.50;;
55031;SDS011;40928;51.076;7.950;2022-11-15T07:17:08;7.75;;;3.20;;
55031;SDS011;40928;51.076;7.950;2022-11-15T07:19:52;6.07;;;3.17;;
55031;SDS011;40928;51.076;7.950;2022-11-15T07:22:37;3.15;;;2.30;;
55031;SDS011;40928;51.076;7.950;2022-11-15T07:25:21;4.18;;;2.88;;
55031;SDS011;40928;51.076;7.950;2022-11-15T07:28:05;4.40;;;2.38;;
55031;SDS011;40928;51.076;7.950;2022-11-15T07:30:49;7.13;;;2.35;;
55031;SDS011;40928;51.076;7.950;2022-11-15T07:33:33;4.78;;;2.38;;
55031;SDS011;40928;51.076;7.950;2022-11-15T07:36:17;3.78;;;2.55;;
55031;SDS011;40928;51.076;7.950;2022-11-15T07:39:02;5.23;;;2.40;;
55031;SDS011;40928;51.076;7.950;2022-11-15T07:41:46;4.38;;;2.35;;
55031;SDS011;40928;51.076;7.950;2022-11-15T07:44:31;9.27;;;3.83;;
55031;SDS011;40928;51.076;7.950;2022-11-15T07:47:15;7.75;;;2.70;;
55031;SDS011;40928;51.076;7.950;2022-11-15T07:49:59;3.63;;;2.70;;
55031;SDS011;40928;51.076;7.950;2022-11-15T07:52:43;4.90;;;2.35;;
55031;SDS011;40928;51.076;7.950;2022-11-15T07:55:27;4.30;;;2.03;;
55031;SDS011;40928;51.076;7.950;2022-11-15T07:58:12;4.93;;;2.70;;
55031;SDS011;40928;51.076;7.950;2022-11-15T08:00:57;4.73;;;2.10;;
55031;SDS011;40928;51.076;7.950;2022-11-15T08:03:41;4.68;;;3.22;;
55031;SDS011;40928;51.076;7.950;2022-11-15T08:06:25;2.88;;;2.55;;
55031;SDS011;40928;51.076;7.950;2022-11-15T08:09:09;3.65;;;2.70;;
55031;SDS011;40928;51.076;7.950;2022-11-15T08:11:53;3.60;;;2.50;;
55031;SDS011;40928;51.076;7.950;2022-11-15T08:14:37;4.75;;;3.20;;
55031;SDS011;40928;51.076;7.950;2022-11-15T08:17:22;8.73;;;3.10;;
55031;SDS011;40928;51.076;7.950;2022-11-15T08:20:09;4.85;;;2.40;;
55031;SDS011;40928;51.076;7.950;2022-11-15T08:22:56;4.38;;;2.70;;
55031;SDS011;40928;51.076;7.950;2022-11-15T08:25:41;4.28;;;2.58;;
55031;SDS011;40928;51.076;7.950;2022-11-15T08:28:25;6.57;;;3.15;;
55031;SDS011;40928;51.076;7.950;2022-11-15T08:31:13;4.63;;;3.20;;
55031;SDS011;40928;51.076;7.950;2022-11-15T08:34:00;4.45;;;3.10;;
55031;SDS011;40928;51.076;7.950;2022-11-15T08:36:44;6.35;;;3.13;;
55031;SDS011;40928;51.076;7.950;2022-11-15T08:39:28;4.03;;;2.67;;
55031;SDS011;40928;51.076;7.950;2022-11-15T08:42:12;5.15;;;3.03;;
55031;SDS011;40928;51.076;7.950;2022-11-15T08:47:42;5.80;;;3.40;;
55031;SDS011;40928;51.076;7.950;2022-11-15T08:50:26;6.35;;;3.38;;
55031;SDS011;40928;51.076;7.950;2022-11-15T08:53:10;4.72;;;3.38;;
55031;SDS011;40928;51.076;7.950;2022-11-15T08:55:54;7.80;;;3.40;;
55031;SDS011;40928;51.076;7.950;2022-11-15T08:58:39;4.93;;;3.60;;
55031;SDS011;40928;51.076;7.950;2022-11-15T09:01:23;5.43;;;3.40;;
55031;SDS011;40928;51.076;7.950;2022-11-15T09:04:08;6.30;;;3.28;;
55031;SDS011;40928;51.076;7.950;2022-11-15T09:06:52;5.10;;;2.95;;
55031;SDS011;40928;51.076;7.950;2022-11-15T09:09:36;4.57;;;2.95;;
55031;SDS011;40928;51.076;7.950;2022-11-15T09:12:20;6.57;;;3.25;;
55031;SDS011;40928;51.076;7.950;2022-11-15T09:15:05;5.03;;;2.80;;
55031;SDS011;40928;51.076;7.950;2022-11-15T09:17:50;4.18;;;2.78;;
55031;SDS011;40928;51.076;7.950;2022-11-15T09:20:34;5.80;;;2.88;;
55031;SDS011;40928;51.076;7.950;2022-11-15T09:23:18;7.20;;;3.20;;
55031;SDS011;40928;51.076;7.950;2022-11-15T09:26:02;4.72;;;3.28;;
55031;SDS011;40928;51.076;7.950;2022-11-15T09:28:48;7.68;;;2.88;;
55031;SDS011;40928;51.076;7.950;2022-11-15T09:31:32;5.73;;;3.03;;
55031;SDS011;40928;51.076;7.950;2022-11-15T09:34:16;6.82;;;2.90;;
55031;SDS011;40928;51.076;7.950;2022-11-15T09:37:01;3.60;;;3.00;;
55031;SDS011;40928;51.076;7.950;2022-11-15T09:39:44;4.47;;;3.05;;
55031;SDS011;40928;51.076;7.950;2022-11-15T09:42:39;4.45;;;2.53;;
55031;SDS011;40928;51.076;7.950;2022-11-15T09:45:44;6.22;;;2.83;;
55031;SDS011;40928;51.076;7.950;2022-11-15T09:49:03;5.38;;;2.70;;
55031;SDS011;40928;51.076;7.950;2022-11-15T09:51:33;3.60;;;2.70;;
55031;SDS011;40928;51.076;7.950;2022-11-15T09:56:35;8.88;;;2.60;;
55031;SDS011;40928;51.076;7.950;2022-11-15T10:04:15;3.83;;;1.88;;
55031;SDS011;40928;51.076;7.950;2022-11-15T10:06:43;3.55;;;2.35;;
55031;SDS011;40928;51.076;7.950;2022-11-15T10:09:26;3.67;;;1.95;;
55031;SDS011;40928;51.076;7.950;2022-11-15T10:11:58;2.03;;;1.70;;
55031;SDS011;40928;51.076;7.950;2022-11-15T10:14:25;2.03;;;1.35;;
55031;SDS011;40928;51.076;7.950;2022-11-15T10:22:21;2.67;;;1.48;;
55031;SDS011;40928;51.076;7.950;2022-11-15T10:24:49;3.75;;;1.58;;
55031;SDS011;40928;51.076;7.950;2022-11-15T10:27:18;2.72;;;1.40;;
55031;SDS011;40928;51.076;7.950;2022-11-15T10:32:11;3.25;;;1.50;;
55031;SDS011;40928;51.076;7.950;2022-11-15T10:34:38;2.00;;;1.30;;
55031;SDS011;40928;51.076;7.950;2022-11-15T10:37:03;2.90;;;1.23;;
55031;SDS011;40928;51.076;7.950;2022-11-15T10:39:29;3.72;;;1.40;;
55031;SDS011;40928;51.076;7.950;2022-11-15T10:41:54;4.35;;;1.45;;
55031;SDS011;40928;51.076;7.950;2022-11-15T10:44:22;1.52;;;1.00;;
55031;SDS011;40928;51.076;7.950;2022-11-15T10:49:21;2.35;;;1.42;;
55031;SDS011;40928;51.076;7.950;2022-11-15T10:52:35;4.40;;;1.33;;
55031;SDS011;40928;51.076;7.950;2022-11-15T10:54:48;2.70;;;1.38;;
55031;SDS011;40928;51.076;7.950;2022-11-15T10:57:20;3.78;;;0.93;;
55031;SDS011;40928;51.076;7.950;2022-11-15T10:59:49;3.25;;;1.17;;
55031;SDS011;40928;51.076;7.950;2022-11-15T11:04:55;2.33;;;0.93;;
55031;SDS011;40928;51.076;7.950;2022-11-15T11:07:25;1.35;;;1.02;;
55031;SDS011;40928;51.076;7.950;2022-11-15T11:10:00;3.47;;;1.10;;
55031;SDS011;40928;51.076;7.950;2022-11-15T11:12:44;2.20;;;1.20;;
55031;SDS011;40928;51.076;7.950;2022-11-15T11:15:14;1.85;;;0.93;;
55031;SDS011;40928;51.076;7.950;2022-11-15T11:17:53;2.33;;;1.05;;
55031;SDS011;40928;51.076;7.950;2022-11-15T11:20:45;2.25;;;0.95;;
55031;SDS011;40928;51.076;7.950;2022-11-15T11:23:23;2.33;;;0.90;;
55031;SDS011;40928;51.076;7.950;2022-11-15T11:50:35;2.58;;;1.00;;
55031;SDS011;40928;51.076;7.950;2022-11-15T11:53:24;2.65;;;0.68;;
55031;SDS011;40928;51.076;7.950;2022-11-15T11:55:57;3.95;;;0.70;;
55031;SDS011;40928;51.076;7.950;2022-11-15T11:58:33;3.20;;;1.05;;
55031;SDS011;40928;51.076;7.950;2022-11-15T12:01:12;1.35;;;0.40;;
55031;SDS011;40928;51.076;7.950;2022-11-15T12:04:01;1.10;;;0.45;;
55031;SDS011;40928;51.076;7.950;2022-11-15T12:06:41;1.65;;;0.70;;
55031;SDS011;40928;51.076;7.950;2022-11-15T12:14:38;5.45;;;0.82;;
55031;SDS011;40928;51.076;7.950;2022-11-15T12:17:11;1.80;;;0.80;;
55031;SDS011;40928;51.076;7.950;2022-11-15T12:19:38;2.50;;;0.70;;
55031;SDS011;40928;51.076;7.950;2022-11-15T12:22:38;5.53;;;1.00;;
55031;SDS011;40928;51.076;7.950;2022-11-15T12:25:03;1.90;;;0.60;;
55031;SDS011;40928;51.076;7.950;2022-11-15T12:27:58;1.38;;;0.65;;
55031;SDS011;40928;51.076;7.950;2022-11-15T12:30:38;2.33;;;0.90;;
55031;SDS011;40928;51.076;7.950;2022-11-15T12:36:11;1.98;;;1.20;;
55031;SDS011;40928;51.076;7.950;2022-11-15T12:38:56;3.10;;;0.70;;
55031;SDS011;40928;51.076;7.950;2022-11-15T12:41:27;1.70;;;0.80;;
55031;SDS011;40928;51.076;7.950;2022-11-15T12:43:54;1.65;;;0.68;;
55031;SDS011;40928;51.076;7.950;2022-11-15T12:48:59;1.17;;;0.70;;
55031;SDS011;40928;51.076;7.950;2022-11-15T13:02:42;2.30;;;0.77;;
55031;SDS011;40928;51.076;7.950;2022-11-15T13:22:49;3.60;;;1.50;;
55031;SDS011;40928;51.076;7.950;2022-11-15T13:30:48;20.83;;;7.03;;
55031;SDS011;40928;51.076;7.950;2022-11-15T13:35:49;2.30;;;0.90;;
55031;SDS011;40928;51.076;7.950;2022-11-15T13:40:49;3.08;;;0.80;;
55031;SDS011;40928;51.076;7.950;2022-11-15T13:43:36;5.80;;;1.00;;
55031;SDS011;40928;51.076;7.950;2022-11-15T13:48:38;2.08;;;0.88;;
55031;SDS011;40928;51.076;7.950;2022-11-15T13:51:07;3.92;;;1.00;;
55031;SDS011;40928;51.076;7.950;2022-11-15T13:53:41;2.90;;;1.15;;
55031;SDS011;40928;51.076;7.950;2022-11-15T13:56:12;3.35;;;0.77;;
55031;SDS011;40928;51.076;7.950;2022-11-15T13:58:40;2.97;;;0.70;;
55031;SDS011;40928;51.076;7.950;2022-11-15T14:01:06;2.72;;;0.95;;
55031;SDS011;40928;51.076;7.950;2022-11-15T14:03:36;2.55;;;0.68;;
55031;SDS011;40928;51.076;7.950;2022-11-15T14:06:13;2.47;;;0.75;;
55031;SDS011;40928;51.076;7.950;2022-11-15T14:08:42;1.60;;;0.60;;
55031;SDS011;40928;51.076;7.950;2022-11-15T14:11:23;1.58;;;0.90;;
55031;SDS011;40928;51.076;7.950;2022-11-15T14:16:34;0.95;;;0.45;;
55031;SDS011;40928;51.076;7.950;2022-11-15T14:19:02;3.10;;;0.73;;
55031;SDS011;40928;51.076;7.950;2022-11-15T14:21:29;2.47;;;0.80;;
55031;SDS011;40928;51.076;7.950;2022-11-15T14:24:14;0.70;;;0.50;;
55031;SDS011;40928;51.076;7.950;2022-11-15T14:26:44;2.63;;;0.77;;
55031;SDS011;40928;51.076;7.950;2022-11-15T14:29:26;1.95;;;0.80;;
55031;SDS011;40928;51.076;7.950;2022-11-15T14:31:53;1.80;;;0.85;;
55031;SDS011;40928;51.076;7.950;2022-11-15T14:34:32;1.63;;;0.63;;
55031;SDS011;40928;51.076;7.950;2022-11-15T14:36:57;2.25;;;0.90;;
55031;SDS011;40928;51.076;7.950;2022-11-15T14:39:23;2.17;;;0.82;;
55031;SDS011;40928;51.076;7.950;2022-11-15T14:41:50;3.10;;;0.63;;
55031;SDS011;40928;51.076;7.950;2022-11-15T14:44:16;2.47;;;0.63;;
55031;SDS011;40928;51.076;7.950;2022-11-15T14:46:43;1.17;;;0.80;;
55031;SDS011;40928;51.076;7.950;2022-11-15T14:49:09;4.22;;;0.75;;
55031;SDS011;40928;51.076;7.950;2022-11-15T14:51:44;2.05;;;0.75;;
55031;SDS011;40928;51.076;7.950;2022-11-15T14:54:10;2.10;;;0.57;;
55031;SDS011;40928;51.076;7.950;2022-11-15T14:56:36;1.50;;;0.60;;
55031;SDS011;40928;51.076;7.950;2022-11-15T14:59:01;1.13;;;0.57;;
55031;SDS011;40928;51.076;7.950;2022-11-15T15:01:27;1.33;;;0.80;;
55031;SDS011;40928;51.076;7.950;2022-11-15T15:03:53;1.38;;;0.80;;
55031;SDS011;40928;51.076;7.950;2022-11-15T15:06:22;0.95;;;0.60;;
55031;SDS011;40928;51.076;7.950;2022-11-15T15:08:48;3.45;;;0.85;;
55031;SDS011;40928;51.076;7.950;2022-11-15T15:11:16;1.75;;;0.63;;
55031;SDS011;40928;51.076;7.950;2022-11-15T15:13:47;1.00;;;0.70;;
55031;SDS011;40928;51.076;7.950;2022-11-15T15:16:13;4.65;;;1.67;;
55031;SDS011;40928;51.076;7.950;2022-11-15T15:18:38;4.15;;;1.05;;
55031;SDS011;40928;51.076;7.950;2022-11-15T15:21:04;3.55;;;0.95;;
55031;SDS011;40928;51.076;7.950;2022-11-15T15:23:46;2.03;;;0.80;;
55031;SDS011;40928;51.076;7.950;2022-11-15T15:26:11;1.38;;;0.88;;
55031;SDS011;40928;51.076;7.950;2022-11-15T15:28:37;5.43;;;1.00;;
55031;SDS011;40928;51.076;7.950;2022-11-15T15:31:04;2.05;;;1.02;;
55031;SDS011;40928;51.076;7.950;2022-11-15T15:33:30;3.08;;;1.40;;
55031;SDS011;40928;51.076;7.950;2022-11-15T15:35:56;2.83;;;1.60;;
55031;SDS011;40928;51.076;7.950;2022-11-15T15:38:22;3.85;;;1.60;;
55031;SDS011;40928;51.076;7.950;2022-11-15T15:40:48;2.78;;;1.17;;
55031;SDS011;40928;51.076;7.950;2022-11-15T15:43:13;5.22;;;2.33;;
55031;SDS011;40928;51.076;7.950;2022-11-15T15:45:39;4.60;;;1.23;;
55031;SDS011;40928;51.076;7.950;2022-11-15T15:48:13;1.45;;;0.90;;
55031;SDS011;40928;51.076;7.950;2022-11-15T15:50:40;2.47;;;1.10;;
55031;SDS011;40928;51.076;7.950;2022-11-15T15:53:08;3.65;;;1.40;;
55031;SDS011;40928;51.076;7.950;2022-11-15T15:55:35;4.65;;;2.17;;
55031;SDS011;40928;51.076;7.950;2022-11-15T15:58:02;5.55;;;1.17;;
55031;SDS011;40928;51.076;7.950;2022-11-15T16:00:28;6.35;;;2.67;;
55031;SDS011;40928;51.076;7.950;2022-11-15T16:02:54;3.25;;;1.40;;
55031;SDS011;40928;51.076;7.950;2022-11-15T16:05:20;2.33;;;1.77;;
55031;SDS011;40928;51.076;7.950;2022-11-15T16:07:46;3.55;;;1.48;;
55031;SDS011;40928;51.076;7.950;2022-11-15T16:10:17;1.67;;;0.90;;
55031;SDS011;40928;51.076;7.950;2022-11-15T16:12:50;1.75;;;1.02;;
55031;SDS011;40928;51.076;7.950;2022-11-15T16:15:16;3.83;;;1.88;;
55031;SDS011;40928;51.076;7.950;2022-11-15T16:17:55;3.20;;;1.50;;
55031;SDS011;40928;51.076;7.950;2022-11-15T16:23:03;2.58;;;1.35;;
55031;SDS011;40928;51.076;7.950;2022-11-15T16:25:32;1.70;;;1.23;;
55031;SDS011;40928;51.076;7.950;2022-11-15T16:28:02;2.72;;;1.67;;
55031;SDS011;40928;51.076;7.950;2022-11-15T16:30:27;4.97;;;2.00;;
55031;SDS011;40928;51.076;7.950;2022-11-15T16:32:53;3.25;;;1.55;;
55031;SDS011;40928;51.076;7.950;2022-11-15T16:35:19;3.58;;;1.70;;
55031;SDS011;40928;51.076;7.950;2022-11-15T16:37:44;6.93;;;1.42;;
55031;SDS011;40928;51.076;7.950;2022-11-15T16:40:20;1.98;;;1.13;;
55031;SDS011;40928;51.076;7.950;2022-11-15T16:42:50;5.03;;;1.40;;
55031;SDS011;40928;51.076;7.950;2022-11-15T16:45:16;2.38;;;1.33;;
55031;SDS011;40928;51.076;7.950;2022-11-15T16:47:41;3.65;;;1.30;;
55031;SDS011;40928;51.076;7.950;2022-11-15T16:50:41;7.13;;;1.83;;
55031;SDS011;40928;51.076;7.950;2022-11-15T16:53:05;3.63;;;1.50;;
55031;SDS011;40928;51.076;7.950;2022-11-15T16:55:31;1.63;;;1.13;;
55031;SDS011;40928;51.076;7.950;2022-11-15T16:57:57;1.95;;;1.42;;
55031;SDS011;40928;51.076;7.950;2022-11-15T17:00:23;2.95;;;1.20;;
55031;SDS011;40928;51.076;7.950;2022-11-15T17:02:49;1.85;;;1.38;;
55031;SDS011;40928;51.076;7.950;2022-11-15T17:05:16;3.13;;;1.25;;
55031;SDS011;40928;51.076;7.950;2022-11-15T17:07:45;4.20;;;1.67;;
55031;SDS011;40928;51.076;7.950;2022-11-15T17:10:14;2.47;;;1.30;;
55031;SDS011;40928;51.076;7.950;2022-11-15T17:12:40;6.10;;;1.80;;
55031;SDS011;40928;51.076;7.950;2022-11-15T17:15:06;3.22;;;1.85;;
55031;SDS011;40928;51.076;7.950;2022-11-15T17:17:32;4.45;;;1.48;;
55031;SDS011;40928;51.076;7.950;2022-11-15T17:19:58;3.13;;;2.00;;
55031;SDS011;40928;51.076;7.950;2022-11-15T17:22:23;5.50;;;1.90;;
55031;SDS011;40928;51.076;7.950;2022-11-15T17:24:49;2.42;;;1.80;;
55031;SDS011;40928;51.076;7.950;2022-11-15T17:27:15;3.60;;;1.55;;
55031;SDS011;40928;51.076;7.950;2022-11-15T17:29:40;3.10;;;1.48;;
55031;SDS011;40928;51.076;7.950;2022-11-15T17:32:07;3.35;;;2.03;;
55031;SDS011;40928;51.076;7.950;2022-11-15T17:34:33;1.80;;;1.45;;
55031;SDS011;40928;51.076;7.950;2022-11-15T17:36:59;2.55;;;1.40;;
55031;SDS011;40928;51.076;7.950;2022-11-15T17:39:25;1.60;;;1.40;;
55031;SDS011;40928;51.076;7.950;2022-11-15T17:41:50;3.13;;;1.52;;
55031;SDS011;40928;51.076;7.950;2022-11-15T17:44:16;2.95;;;1.77;;
55031;SDS011;40928;51.076;7.950;2022-11-15T17:46:42;3.75;;;2.00;;
55031;SDS011;40928;51.076;7.950;2022-11-15T17:49:08;2.65;;;1.95;;
55031;SDS011;40928;51.076;7.950;2022-11-15T17:51:34;4.32;;;2.40;;
55031;SDS011;40928;51.076;7.950;2022-11-15T17:53:59;4.78;;;2.60;;
55031;SDS011;40928;51.076;7.950;2022-11-15T17:56:26;4.32;;;2.70;;
55031;SDS011;40928;51.076;7.950;2022-11-15T17:58:54;4.00;;;2.40;;
55031;SDS011;40928;51.076;7.950;2022-11-15T18:01:25;6.32;;;2.67;;
55031;SDS011;40928;51.076;7.950;2022-11-15T18:03:52;4.85;;;2.90;;
55031;SDS011;40928;51.076;7.950;2022-11-15T18:06:18;6.82;;;2.55;;
55031;SDS011;40928;51.076;7.950;2022-11-15T18:08:46;4.95;;;2.78;;
55031;SDS011;40928;51.076;7.950;2022-11-15T18:11:14;5.57;;;2.83;;
55031;SDS011;40928;51.076;7.950;2022-11-15T18:13:46;4.88;;;2.67;;
55031;SDS011;40928;51.076;7.950;2022-11-15T18:16:18;4.10;;;2.10;;
55031;SDS011;40928;51.076;7.950;2022-11-15T18:18:46;3.92;;;2.38;;
55031;SDS011;40928;51.076;7.950;2022-11-15T18:21:12;4.88;;;2.38;;
55031;SDS011;40928;51.076;7.950;2022-11-15T18:23:40;6.50;;;2.42;;